Time;durP1;ratioP1;P1;durP2;ratioP2;P2;SDS_P1;SDS_P2;PMS_P1;PMS_P2;Temp;Humidity;BMP_temperature;BMP_pressure;BME280_temperature;BME280_humidity;BME280_pressure;Samples;Min_cycle;Max_cycle;Signal;HPM_P1;HPM_P2
2021/06/10 00:02:17;;;;;;;11.97;10.77;;;20.60;99.90;;;;;;5138475;27;20468;-68
2021/06/10 00:04:43;;;;;;;12.03;10.93;;;20.60;99.90;;;;;;5138194;27;20170;-68
2021/06/10 00:07:10;;;;;;;13.17;11.77;;;20.70;99.90;;;;;;5138328;27;20549;-68
2021/06/10 00:09:35;;;;;;;12.20;10.97;;;20.70;99.90;;;;;;5136799;27;20486;-68
2021/06/10 00:12:02;;;;;;;11.53;10.53;;;20.70;99.90;;;;;;5138246;27;20442;-68
2021/06/10 00:14:30;;;;;;;11.73;10.73;;;20.70;99.90;;;;;;5138050;27;20179;-68
2021/06/10 00:16:56;;;;;;;11.87;10.77;;;20.70;99.90;;;;;;5138095;27;20536;-68
2021/06/10 00:19:22;;;;;;;12.30;10.90;;;20.70;99.90;;;;;;5137644;27;20869;-68
2021/06/10 00:21:47;;;;;;;12.10;10.90;;;20.60;99.90;;;;;;5136381;27;20575;-68
2021/06/10 00:24:14;;;;;;;11.13;10.03;;;20.50;99.90;;;;;;5136491;27;20183;-69
2021/06/10 00:26:39;;;;;;;11.80;10.80;;;20.50;99.90;;;;;;5137862;27;20199;-67
2021/06/10 00:29:05;;;;;;;11.43;10.43;;;20.50;99.90;;;;;;5136380;27;20410;-68
2021/06/10 00:31:32;;;;;;;13.80;10.80;;;20.40;99.90;;;;;;5137844;27;20195;-67
2021/06/10 00:33:57;;;;;;;12.10;11.00;;;20.50;99.90;;;;;;5136340;27;20399;-68
2021/06/10 00:36:25;;;;;;;11.63;10.67;;;20.50;99.90;;;;;;5137517;27;21046;-68
2021/06/10 00:38:51;;;;;;;12.87;11.53;;;20.40;99.90;;;;;;5137300;27;20406;-67
2021/06/10 00:41:17;;;;;;;12.53;11.33;;;20.40;99.90;;;;;;5137491;27;20434;-67
2021/06/10 00:43:43;;;;;;;12.33;11.20;;;20.40;99.90;;;;;;5136164;27;20174;-68
2021/06/10 00:46:09;;;;;;;13.23;11.80;;;20.40;99.90;;;;;;5137305;27;20586;-68
2021/06/10 00:48:35;;;;;;;12.23;10.80;;;20.30;99.90;;;;;;5136063;27;20947;-68
2021/06/10 00:51:01;;;;;;;19.27;11.47;;;20.20;99.90;;;;;;5137154;27;20464;-68
2021/06/10 00:53:27;;;;;;;13.47;12.17;;;20.20;99.90;;;;;;5137262;27;20414;-68
2021/06/10 00:55:58;;;;;;;15.30;12.10;;;20.20;99.90;;;;;;5137042;27;20411;-68
2021/06/10 00:58:25;;;;;;;13.10;11.80;;;20.20;99.90;;;;;;5137245;27;20166;-68
2021/06/10 01:00:54;;;;;;;12.97;11.77;;;20.20;99.90;;;;;;5136850;27;20919;-67
2021/06/10 01:03:20;;;;;;;11.60;10.23;;;20.20;99.90;;;;;;5137011;27;20527;-68
2021/06/10 01:05:52;;;;;;;12.10;11.00;;;20.30;99.90;;;;;;5136501;27;20415;-68
2021/06/10 01:08:59;;;;;;;12.73;11.53;;;20.30;99.90;;;;;;5136977;27;20427;-68
2021/06/10 01:12:00;;;;;;;12.63;11.37;;;20.30;99.90;;;;;;5118640;27;20451;-68
2021/06/10 01:14:52;;;;;;;12.87;11.30;;;20.40;99.90;;;;;;5136878;27;20460;-67
2021/06/10 01:17:18;;;;;;;11.67;10.57;;;20.40;99.90;;;;;;5133983;27;20478;-68
2021/06/10 01:20:08;;;;;;;13.17;11.70;;;20.30;99.90;;;;;;5136534;27;20482;-67
2021/06/10 01:22:37;;;;;;;13.63;10.97;;;20.30;99.90;;;;;;5137140;27;20626;-68
2021/06/10 01:25:28;;;;;;;13.00;11.77;;;20.20;99.90;;;;;;5136503;27;20417;-67
2021/06/10 01:27:58;;;;;;;14.10;11.93;;;20.30;99.90;;;;;;5137135;27;20817;-68
2021/06/10 01:30:30;;;;;;;12.43;11.33;;;20.30;99.90;;;;;;5136645;27;20433;-67
2021/06/10 01:32:59;;;;;;;16.73;10.80;;;20.30;99.90;;;;;;5137030;27;20423;-68
2021/06/10 01:35:30;;;;;;;12.90;10.40;;;20.30;99.90;;;;;;5136671;27;20811;-67
2021/06/10 01:37:58;;;;;;;11.40;10.37;;;20.20;99.90;;;;;;5136933;27;20472;-67
2021/06/10 01:40:25;;;;;;;11.80;10.60;;;20.30;99.90;;;;;;5136136;27;20953;-67
2021/06/10 01:42:52;;;;;;;14.20;11.40;;;20.30;99.90;;;;;;5136636;27;20482;-68
2021/06/10 01:45:19;;;;;;;11.20;10.10;;;20.30;99.90;;;;;;5136216;27;20780;-67
2021/06/10 01:47:46;;;;;;;16.03;10.53;;;20.30;99.90;;;;;;5135091;27;20973;-67
2021/06/10 01:50:14;;;;;;;11.37;10.30;;;20.40;99.90;;;;;;5135992;27;20418;-68
2021/06/10 01:52:41;;;;;;;11.00;9.70;;;20.60;99.90;;;;;;5136588;27;20935;-68
2021/06/10 01:55:10;;;;;;;11.10;10.00;;;20.60;99.90;;;;;;5136009;27;20410;-67
2021/06/10 01:57:37;;;;;;;13.93;9.80;;;20.70;99.90;;;;;;5136391;27;20564;-67
2021/06/10 02:00:08;;;;;;;11.20;10.00;;;20.70;99.90;;;;;;5134341;27;20931;-67
2021/06/10 02:02:36;;;;;;;9.57;8.63;;;20.80;99.90;;;;;;5136326;27;20512;-67
2021/06/10 02:05:03;;;;;;;10.83;9.50;;;20.90;99.90;;;;;;5135786;27;20847;-67
2021/06/10 02:07:29;;;;;;;10.83;9.83;;;20.80;99.90;;;;;;5136242;27;20939;-68
2021/06/10 02:09:56;;;;;;;10.33;8.63;;;20.70;99.90;;;;;;5135635;27;20407;-68
2021/06/10 02:12:22;;;;;;;10.27;9.03;;;20.70;99.90;;;;;;5136004;27;20179;-68
2021/06/10 02:14:47;;;;;;;10.53;9.50;;;20.60;99.90;;;;;;5135597;27;20409;-68
2021/06/10 02:17:17;;;;;;;10.07;9.10;;;20.60;99.90;;;;;;5135333;27;20203;-68
2021/06/10 02:19:45;;;;;;;9.80;8.83;;;20.60;99.90;;;;;;5135335;27;20218;-67
2021/06/10 02:22:12;;;;;;;10.00;9.00;;;20.60;99.90;;;;;;5135703;27;20470;-68
2021/06/10 02:24:38;;;;;;;10.27;9.27;;;20.70;99.90;;;;;;5135431;27;20813;-69
2021/06/10 02:27:04;;;;;;;9.03;8.23;;;20.70;99.90;;;;;;5134121;27;20459;-68
2021/06/10 02:29:29;;;;;;;9.57;8.67;;;20.80;99.90;;;;;;5134081;27;20179;-68
2021/06/10 02:31:55;;;;;;;9.60;8.60;;;20.70;99.90;;;;;;5135086;27;20438;-68
2021/06/10 02:34:21;;;;;;;9.10;8.20;;;20.70;99.90;;;;;;5135282;27;20180;-68
2021/06/10 02:36:47;;;;;;;8.67;7.90;;;20.70;99.90;;;;;;5133871;27;20336;-68
2021/06/10 02:39:16;;;;;;;9.80;8.90;;;20.80;99.90;;;;;;5134950;27;20396;-68
2021/06/10 02:41:46;;;;;;;7.90;7.27;;;20.90;99.90;;;;;;5135309;27;20967;-68
2021/06/10 02:44:13;;;;;;;8.83;7.93;;;21.00;99.90;;;;;;5133869;27;20407;-68
2021/06/10 02:46:41;;;;;;;8.57;7.77;;;21.10;99.90;;;;;;5134962;27;20454;-68
2021/06/10 02:49:09;;;;;;;8.73;7.90;;;21.20;99.90;;;;;;5134998;27;20399;-68
2021/06/10 02:51:36;;;;;;;8.47;7.33;;;21.20;99.90;;;;;;5133722;27;20457;-68
2021/06/10 02:54:05;;;;;;;7.80;7.20;;;21.30;99.90;;;;;;5134923;27;20966;-68
2021/06/10 02:56:32;;;;;;;7.90;7.20;;;21.40;99.90;;;;;;5135034;27;20495;-68
2021/06/10 02:59:00;;;;;;;8.43;7.53;;;21.30;99.90;;;;;;5133389;27;20498;-68
2021/06/10 03:01:27;;;;;;;8.13;7.43;;;21.40;99.90;;;;;;5134929;27;20561;-68
2021/06/10 03:03:53;;;;;;;8.23;7.40;;;21.30;99.90;;;;;;5134807;27;20411;-68
2021/06/10 03:06:22;;;;;;;8.93;7.77;;;21.30;99.90;;;;;;5134754;27;20506;-67
2021/06/10 03:08:52;;;;;;;7.50;6.90;;;21.20;99.90;;;;;;5133376;27;20171;-68
2021/06/10 03:11:21;;;;;;;7.90;7.10;;;21.20;99.90;;;;;;5133445;27;20481;-67
2021/06/10 03:13:48;;;;;;;9.50;7.83;;;21.20;99.90;;;;;;5134746;27;20438;-67
2021/06/10 03:16:15;;;;;;;9.10;8.20;;;21.20;99.90;;;;;;5134720;28;20946;-68
2021/06/10 03:18:43;;;;;;;8.17;7.57;;;21.20;99.90;;;;;;5134469;28;20450;-69
2021/06/10 03:21:09;;;;;;;9.50;8.60;;;21.30;99.90;;;;;;5134227;28;20451;-68
2021/06/10 03:23:35;;;;;;;10.27;8.37;;;21.20;99.90;;;;;;5134643;28;20777;-68
2021/06/10 03:26:02;;;;;;;8.93;8.10;;;21.20;99.90;;;;;;5134500;28;20893;-68
2021/06/10 03:28:29;;;;;;;8.90;8.13;;;21.30;99.90;;;;;;5134643;27;20892;-68
2021/06/10 03:30:55;;;;;;;14.23;8.40;;;21.20;99.90;;;;;;5138228;27;20792;-67
2021/06/10 03:33:23;;;;;;;8.40;7.70;;;21.20;99.90;;;;;;5138801;27;20395;-68
2021/06/10 03:35:49;;;;;;;9.10;8.20;;;21.20;99.90;;;;;;5138501;27;20422;-68
2021/06/10 03:38:16;;;;;;;9.00;8.20;;;21.20;99.90;;;;;;5138712;27;20418;-67
2021/06/10 03:40:45;;;;;;;9.70;8.73;;;21.20;99.90;;;;;;5138436;27;20843;-68
2021/06/10 03:43:12;;;;;;;8.20;7.37;;;21.20;99.90;;;;;;5138811;27;20502;-68
2021/06/10 03:45:41;;;;;;;9.00;8.10;;;21.30;99.90;;;;;;5138564;27;20427;-68
2021/06/10 03:48:09;;;;;;;10.03;8.93;;;21.30;99.90;;;;;;5139037;27;20403;-69
2021/06/10 03:50:36;;;;;;;9.53;8.53;;;21.20;99.90;;;;;;5138533;27;20922;-67
2021/06/10 03:53:03;;;;;;;9.43;8.47;;;21.20;99.90;;;;;;5138960;27;20429;-67
2021/06/10 03:55:28;;;;;;;9.97;8.60;;;21.20;99.90;;;;;;5129366;27;20471;-67
2021/06/10 03:57:54;;;;;;;9.63;8.57;;;21.10;99.90;;;;;;5117553;28;20916;-67
2021/06/10 04:00:20;;;;;;;9.57;8.53;;;21.00;99.90;;;;;;5116094;28;20660;-67
2021/06/10 04:02:45;;;;;;;9.90;8.83;;;21.00;99.90;;;;;;5117970;28;20231;-68
2021/06/10 04:05:11;;;;;;;8.70;7.90;;;20.90;99.90;;;;;;5117585;28;20584;-68
2021/06/10 04:07:37;;;;;;;9.63;8.73;;;20.90;99.90;;;;;;5118030;28;20192;-68
2021/06/10 04:10:04;;;;;;;9.40;8.60;;;20.90;99.90;;;;;;5117439;28;20176;-68
2021/06/10 04:12:30;;;;;;;9.47;8.57;;;20.90;99.90;;;;;;5117956;28;20225;-68
2021/06/10 04:14:58;;;;;;;10.60;9.50;;;21.00;99.90;;;;;;5117340;28;20419;-67
2021/06/10 04:17:24;;;;;;;11.03;9.10;;;20.90;99.90;;;;;;5116263;28;20180;-67
2021/06/10 04:19:50;;;;;;;10.67;9.10;;;20.90;99.90;;;;;;5115933;28;20531;-67
2021/06/10 04:22:15;;;;;;;9.27;8.47;;;20.80;99.90;;;;;;5117547;28;20211;-68
2021/06/10 04:24:42;;;;;;;10.23;8.97;;;20.80;99.90;;;;;;5116038;28;20188;-69
2021/06/10 04:27:08;;;;;;;9.57;8.70;;;20.80;99.90;;;;;;5117391;28;20661;-68
2021/06/10 04:29:34;;;;;;;9.10;8.37;;;20.80;99.90;;;;;;5117161;28;20413;-68
2021/06/10 04:32:00;;;;;;;9.73;8.83;;;20.80;99.90;;;;;;5116014;27;20458;-67
2021/06/10 04:34:25;;;;;;;9.17;8.33;;;20.80;99.90;;;;;;5115767;28;20408;-69
2021/06/10 04:36:51;;;;;;;10.13;9.23;;;20.70;99.90;;;;;;5116819;28;20204;-68
2021/06/10 04:39:17;;;;;;;9.70;8.80;;;20.80;99.90;;;;;;5114401;28;20183;-69
2021/06/10 04:41:43;;;;;;;15.30;10.23;;;20.80;99.90;;;;;;5116119;28;20478;-67
2021/06/10 04:44:08;;;;;;;15.00;10.50;;;20.80;99.90;;;;;;5117330;28;20168;-68
2021/06/10 04:46:34;;;;;;;11.13;9.83;;;20.90;99.90;;;;;;5115587;28;20351;-67
2021/06/10 04:49:01;;;;;;;10.70;9.70;;;20.90;99.90;;;;;;5115149;28;20247;-69
2021/06/10 04:51:29;;;;;;;10.63;9.53;;;20.90;99.90;;;;;;5113365;28;20443;-68
2021/06/10 04:53:56;;;;;;;9.50;8.60;;;20.80;99.90;;;;;;5115107;28;20428;-68
2021/06/10 04:56:23;;;;;;;10.00;8.40;;;20.80;99.90;;;;;;5116572;28;20464;-67
2021/06/10 04:58:49;;;;;;;10.80;9.40;;;20.90;99.90;;;;;;5098513;28;20412;-67
2021/06/10 05:01:15;;;;;;;11.60;9.73;;;21.00;99.90;;;;;;5093785;28;20875;-68
2021/06/10 05:03:40;;;;;;;10.47;8.53;;;21.10;99.90;;;;;;5095201;28;20413;-68
2021/06/10 05:06:06;;;;;;;10.53;8.70;;;21.20;99.90;;;;;;5100723;28;20457;-68
2021/06/10 05:08:32;;;;;;;8.93;8.13;;;21.30;99.90;;;;;;5115229;28;20184;-68
2021/06/10 05:10:58;;;;;;;10.13;9.23;;;21.40;99.90;;;;;;5112654;27;20242;-67
2021/06/10 05:13:24;;;;;;;10.20;9.20;;;21.30;99.90;;;;;;5110134;28;20462;-68
2021/06/10 05:15:50;;;;;;;9.90;9.10;;;21.30;99.90;;;;;;5113231;27;20733;-68
2021/06/10 05:18:15;;;;;;;10.30;9.23;;;21.30;99.90;;;;;;5111964;27;20259;-68
2021/06/10 05:20:48;;;;;;;9.83;8.90;;;21.30;99.90;;;;;;5113342;27;20198;-67
2021/06/10 05:23:14;;;;;;;9.83;8.97;;;21.50;99.90;;;;;;5113568;28;20237;-67
2021/06/10 05:25:40;;;;;;;11.93;8.67;;;21.70;99.90;;;;;;5112943;27;20448;-67
2021/06/10 05:28:05;;;;;;;13.83;9.23;;;22.00;99.90;;;;;;5113352;28;20176;-67
2021/06/10 05:30:37;;;;;;;12.30;9.50;;;21.80;99.90;;;;;;5112914;27;20295;-67
2021/06/10 05:33:03;;;;;;;11.17;9.57;;;21.80;99.90;;;;;;5114147;28;20188;-67
2021/06/10 05:35:28;;;;;;;10.73;9.73;;;21.70;99.90;;;;;;5113727;28;20514;-67
2021/06/10 05:37:54;;;;;;;12.33;11.17;;;21.70;99.90;;;;;;5113614;27;20191;-68
2021/06/10 05:40:19;;;;;;;9.83;8.90;;;21.60;99.90;;;;;;5114847;28;20196;-67
2021/06/10 05:42:45;;;;;;;11.17;9.57;;;21.80;99.90;;;;;;5114384;28;20228;-67
2021/06/10 05:45:11;;;;;;;9.67;8.87;;;21.70;99.90;;;;;;5113816;27;20211;-68
2021/06/10 05:47:37;;;;;;;10.23;9.20;;;21.60;99.90;;;;;;5114735;27;20202;-67
2021/06/10 05:50:05;;;;;;;11.03;9.93;;;21.60;99.90;;;;;;5113008;27;20506;-67
2021/06/10 05:52:30;;;;;;;10.10;9.30;;;21.50;99.90;;;;;;5113036;28;20191;-67
2021/06/10 05:54:57;;;;;;;10.93;9.07;;;21.60;99.90;;;;;;5113718;28;20437;-68
2021/06/10 05:57:23;;;;;;;10.70;9.60;;;21.60;99.90;;;;;;5113153;28;20747;-67
2021/06/10 05:59:48;;;;;;;11.63;10.57;;;21.70;99.90;;;;;;5114591;27;20447;-69
2021/06/10 06:02:15;;;;;;;11.97;10.77;;;21.80;99.90;;;;;;5114028;28;20234;-67
2021/06/10 06:04:41;;;;;;;11.37;10.27;;;21.90;99.90;;;;;;5113690;27;20172;-68
2021/06/10 06:07:07;;;;;;;10.83;9.73;;;21.80;99.90;;;;;;5114978;28;20443;-69
2021/06/10 06:09:36;;;;;;;12.57;10.47;;;21.90;99.90;;;;;;5113456;28;20428;-69
2021/06/10 06:12:02;;;;;;;9.93;9.03;;;22.10;99.90;;;;;;5115086;28;20218;-68
2021/06/10 06:14:32;;;;;;;11.03;9.50;;;22.00;99.90;;;;;;5115060;28;20403;-67
2021/06/10 06:17:01;;;;;;;10.53;9.63;;;22.00;99.90;;;;;;5115088;28;20452;-68
2021/06/10 06:19:29;;;;;;;10.40;9.50;;;22.00;99.90;;;;;;5114392;27;20459;-68
2021/06/10 06:21:54;;;;;;;12.23;10.20;;;22.10;99.90;;;;;;5127909;27;21013;-68
2021/06/10 06:24:30;;;;;;;9.47;8.67;;;22.10;99.90;;;;;;5110031;27;20510;-69
2021/06/10 06:26:56;;;;;;;8.80;8.00;;;22.10;99.90;;;;;;5129772;27;20242;-67
2021/06/10 06:29:22;;;;;;;9.43;8.57;;;22.20;99.90;;;;;;5123750;27;20458;-68
2021/06/10 06:31:50;;;;;;;8.17;7.50;;;22.50;99.90;;;;;;5126641;27;20207;-68
2021/06/10 06:34:37;;;;;;;7.77;7.07;;;22.70;99.90;;;;;;5114206;27;20307;-67
2021/06/10 06:37:05;;;;;;;9.57;8.77;;;22.60;99.90;;;;;;5114052;28;20447;-68
2021/06/10 06:39:34;;;;;;;9.37;8.47;;;22.40;99.90;;;;;;5104342;28;20412;-69
2021/06/10 06:41:59;;;;;;;9.23;7.90;;;22.50;99.90;;;;;;5108219;28;20476;-67
2021/06/10 06:44:25;;;;;;;9.20;8.30;;;22.80;99.90;;;;;;5107332;28;20424;-69
2021/06/10 06:46:51;;;;;;;8.90;7.87;;;22.80;99.90;;;;;;5111994;28;20513;-68
2021/06/10 06:49:16;;;;;;;8.80;7.93;;;22.90;99.90;;;;;;5109628;28;20194;-68
2021/06/10 06:51:42;;;;;;;9.53;7.37;;;22.90;99.90;;;;;;5103651;28;20672;-67
2021/06/10 06:54:07;;;;;;;9.13;8.33;;;23.20;99.90;;;;;;5107838;28;20226;-68
2021/06/10 06:56:33;;;;;;;8.90;8.03;;;23.30;99.90;;;;;;5114252;27;20203;-68
2021/06/10 06:58:59;;;;;;;8.90;8.10;;;23.50;99.90;;;;;;5119720;27;20168;-68
2021/06/10 07:01:25;;;;;;;9.50;8.60;;;23.70;99.90;;;;;;5118997;27;20199;-67
2021/06/10 07:03:50;;;;;;;8.87;8.07;;;23.60;99.90;;;;;;5117414;27;20184;-69
2021/06/10 07:06:16;;;;;;;8.70;7.80;;;23.80;99.90;;;;;;5120299;27;20209;-68
2021/06/10 07:08:42;;;;;;;10.47;8.60;;;23.90;99.90;;;;;;5122097;27;20172;-69
2021/06/10 07:11:08;;;;;;;9.93;8.47;;;23.90;99.90;;;;;;5113815;27;20764;-68
2021/06/10 07:13:34;;;;;;;8.30;7.50;;;24.00;99.90;;;;;;5113620;27;20422;-68
2021/06/10 07:16:02;;;;;;;9.30;8.40;;;23.90;99.90;;;;;;5116706;27;20589;-68
2021/06/10 07:18:27;;;;;;;10.03;8.77;;;24.00;99.90;;;;;;5140499;27;20686;-69
2021/06/10 07:20:54;;;;;;;9.50;8.60;;;23.80;99.90;;;;;;5110607;28;20439;-70
2021/06/10 07:23:20;;;;;;;9.60;8.70;;;23.80;99.90;;;;;;5112357;28;20672;-69
2021/06/10 07:25:55;;;;;;;;;;;;;;;;;;;;;
2021/06/10 07:28:22;;;;;;;12.57;8.73;;;24.00;99.90;;;;;;5111798;28;20175;-68
2021/06/10 07:30:48;;;;;;;9.53;8.63;;;23.90;99.90;;;;;;5111507;28;20472;-69
2021/06/10 07:33:14;;;;;;;8.03;7.23;;;24.20;99.90;;;;;;5110809;28;20848;-69
2021/06/10 07:35:39;;;;;;;9.60;8.60;;;24.30;99.90;;;;;;5109995;28;20903;-67
2021/06/10 07:38:06;;;;;;;9.70;8.90;;;24.40;99.90;;;;;;5110746;28;20465;-67
2021/06/10 07:40:32;;;;;;;9.70;8.90;;;24.30;99.90;;;;;;5099740;28;20755;-69
2021/06/10 07:43:06;;;;;;;10.13;9.23;;;24.30;99.90;;;;;;5104339;28;20563;-68
2021/06/10 07:45:33;;;;;;;9.23;8.43;;;24.30;99.90;;;;;;5107867;28;20423;-68
2021/06/10 07:47:59;;;;;;;10.10;9.03;;;24.20;99.90;;;;;;5098652;28;20557;-67
2021/06/10 07:50:26;;;;;;;9.90;9.10;;;24.30;99.90;;;;;;5111930;28;20502;-67
2021/06/10 07:52:54;;;;;;;11.20;9.17;;;24.40;99.90;;;;;;5111973;28;20956;-68
2021/06/10 07:55:23;;;;;;;9.20;8.30;;;24.30;99.90;;;;;;5112446;28;20971;-67
2021/06/10 07:57:50;;;;;;;8.90;8.20;;;24.20;99.90;;;;;;5103592;28;20420;-69
2021/06/10 08:00:16;;;;;;;9.77;8.87;;;24.30;99.90;;;;;;5107074;28;20460;-68
2021/06/10 08:02:43;;;;;;;10.43;8.80;;;24.30;99.90;;;;;;5116529;28;20562;-68
2021/06/10 08:05:10;;;;;;;10.10;9.20;;;24.20;99.90;;;;;;5117132;28;20522;-67
2021/06/10 08:07:36;;;;;;;9.80;9.00;;;24.30;99.90;;;;;;5116669;28;20872;-68
2021/06/10 08:10:08;;;;;;;9.50;8.50;;;24.30;99.90;;;;;;5108817;28;20412;-67
2021/06/10 08:12:34;;;;;;;10.27;9.47;;;24.30;99.90;;;;;;5113988;28;20990;-67
2021/06/10 08:15:02;;;;;;;12.63;10.10;;;24.40;99.90;;;;;;5111536;28;20503;-68
2021/06/10 08:17:29;;;;;;;9.77;8.87;;;24.30;99.90;;;;;;5123178;27;20224;-69
2021/06/10 08:19:55;;;;;;;11.30;10.20;;;24.30;99.90;;;;;;5106100;28;20481;-67
2021/06/10 08:22:21;;;;;;;10.73;9.73;;;24.10;99.90;;;;;;5103453;27;20511;-68
2021/06/10 08:24:46;;;;;;;10.57;9.53;;;24.00;99.90;;;;;;5104939;28;20176;-68
2021/06/10 08:27:14;;;;;;;12.13;10.40;;;24.10;99.90;;;;;;5109391;27;20209;-67
2021/06/10 08:29:40;;;;;;;10.47;9.40;;;24.30;99.90;;;;;;5103151;27;20168;-67
2021/06/10 08:32:05;;;;;;;10.40;9.50;;;24.50;99.90;;;;;;5107739;27;20944;-67
2021/06/10 08:34:32;;;;;;;11.30;9.43;;;24.60;99.90;;;;;;5106071;27;20176;-69
2021/06/10 08:36:58;;;;;;;10.20;9.23;;;24.40;99.90;;;;;;5101287;27;20214;-68
2021/06/10 08:39:24;;;;;;;11.37;9.90;;;24.40;99.90;;;;;;5112018;27;20785;-68
2021/06/10 08:41:50;;;;;;;10.60;9.50;;;24.50;99.90;;;;;;5118974;27;20565;-67
2021/06/10 08:44:16;;;;;;;11.00;9.97;;;24.60;99.90;;;;;;5112106;27;20572;-68
2021/06/10 08:46:42;;;;;;;10.10;9.10;;;24.60;99.90;;;;;;5108727;27;20444;-67
2021/06/10 08:49:08;;;;;;;11.60;10.60;;;24.70;99.90;;;;;;5117038;27;20420;-69
2021/06/10 08:51:35;;;;;;;10.63;9.73;;;24.50;99.90;;;;;;5118295;27;20232;-69
2021/06/10 08:54:01;;;;;;;12.60;11.50;;;24.70;99.90;;;;;;5105589;27;20425;-69
2021/06/10 08:56:30;;;;;;;10.87;9.80;;;24.70;99.90;;;;;;5118297;27;20801;-67
2021/06/10 08:58:58;;;;;;;11.57;10.53;;;24.60;99.90;;;;;;5112007;27;20428;-68
2021/06/10 09:01:29;;;;;;;13.23;9.53;;;24.80;99.90;;;;;;5114821;27;20463;-67
2021/06/10 09:06:52;;;;;;;10.07;9.03;;;24.80;99.90;;;;;;5114159;27;20460;-67
2021/06/10 09:09:38;;;;;;;10.37;9.30;;;24.90;99.90;;;;;;5132500;27;20417;-68
2021/06/10 09:12:08;;;;;;;9.50;8.70;;;25.10;99.90;;;;;;5111236;27;20479;-68
2021/06/10 09:14:58;;;;;;;9.70;8.80;;;25.20;99.90;;;;;;5108601;27;20582;-67
2021/06/10 09:17:34;;;;;;;9.57;8.73;;;25.00;99.90;;;;;;5114885;27;20433;-68
2021/06/10 09:20:02;;;;;;;11.50;9.10;;;25.20;99.90;;;;;;5110817;27;20477;-67
2021/06/10 09:22:49;;;;;;;12.07;8.93;;;25.20;99.90;;;;;;5111646;27;20622;-68
2021/06/10 09:25:20;;;;;;;10.30;9.30;;;25.40;99.90;;;;;;5094983;28;20826;-67
2021/06/10 09:27:58;;;;;;;10.53;9.20;;;25.70;99.90;;;;;;5108708;27;20921;-68
2021/06/10 09:31:02;;;;;;;;;;;;;;;;;;;;;
2021/06/10 09:33:38;;;;;;;9.13;8.23;;;26.10;99.90;;;;;;5119832;27;20779;-67
2021/06/10 09:36:05;;;;;;;10.47;8.50;;;26.20;99.90;;;;;;5112469;27;20447;-67
2021/06/10 09:38:30;;;;;;;10.30;9.27;;;26.40;99.90;;;;;;5125141;27;20432;-68
2021/06/10 09:41:05;;;;;;;10.30;9.17;;;26.70;99.90;;;;;;5110297;27;20529;-67
2021/06/10 09:44:00;;;;;;;8.90;8.07;;;26.80;99.90;;;;;;5117969;27;20224;-68
2021/06/10 09:47:00;;;;;;;9.60;8.70;;;26.80;99.90;;;;;;5098848;28;20470;-68
2021/06/10 09:49:26;;;;;;;10.87;8.23;;;26.90;99.90;;;;;;5115110;27;20920;-67
2021/06/10 09:51:53;;;;;;;8.83;8.03;;;26.90;99.90;;;;;;5113186;27;20500;-68
2021/06/10 09:54:38;;;;;;;9.87;8.90;;;27.10;99.90;;;;;;5115447;27;20199;-69
2021/06/10 09:59:54;;;;;;;9.47;8.57;;;26.80;99.90;;;;;;5111617;27;20431;-68
2021/06/10 10:02:44;;;;;;;9.10;8.40;;;26.80;99.90;;;;;;5112931;27;20628;-68
2021/06/10 10:05:09;;;;;;;8.83;8.00;;;26.90;99.90;;;;;;5111365;28;20455;-68
2021/06/10 10:07:37;;;;;;;7.50;6.80;;;27.00;99.90;;;;;;5122399;27;20434;-67
2021/06/10 10:10:13;;;;;;;8.53;7.73;;;27.10;99.90;;;;;;5134014;27;20183;-67
2021/06/10 10:12:41;;;;;;;9.70;7.80;;;27.20;99.90;;;;;;5132896;27;20422;-67
2021/06/10 10:15:10;;;;;;;8.80;8.10;;;27.20;99.90;;;;;;5127899;27;20416;-68
2021/06/10 10:17:36;;;;;;;8.80;8.10;;;27.10;99.90;;;;;;5112729;27;20455;-67
2021/06/10 10:20:05;;;;;;;8.40;7.60;;;27.30;99.90;;;;;;5113942;27;20460;-67
2021/06/10 10:22:41;;;;;;;;;;;;;;;;;;;;;
2021/06/10 10:25:07;;;;;;;8.37;7.57;;;27.40;99.90;;;;;;5127082;27;20408;-68
2021/06/10 10:27:40;;;;;;;8.77;7.90;;;27.20;99.90;;;;;;5109056;27;20455;-67
2021/06/10 10:30:16;;;;;;;9.57;8.63;;;27.30;99.90;;;;;;5132687;27;20442;-67
2021/06/10 10:32:44;;;;;;;11.13;10.23;;;27.40;99.90;;;;;;5133380;27;20429;-67
2021/06/10 10:35:33;;;;;;;11.60;9.30;;;27.20;99.90;;;;;;5124638;27;20443;-67
2021/06/10 10:38:21;;;;;;;9.43;8.63;;;27.50;99.90;;;;;;5104286;27;20428;-69
2021/06/10 10:41:07;;;;;;;9.50;8.70;;;27.50;99.90;;;;;;5102894;27;20459;-69
2021/06/10 10:43:32;;;;;;;12.10;10.90;;;27.40;99.90;;;;;;5103378;27;20474;-69
2021/06/10 10:46:19;;;;;;;11.23;10.23;;;27.60;99.90;;;;;;5123702;27;20953;-67
2021/06/10 10:48:50;;;;;;;12.03;10.93;;;27.40;99.90;;;;;;5113606;28;20167;-68
2021/06/10 10:51:33;;;;;;;10.70;9.67;;;27.30;99.90;;;;;;5113231;27;20462;-68
2021/06/10 10:54:00;;;;;;;8.73;8.10;;;27.60;99.90;;;;;;5117498;27;20435;-69
2021/06/10 10:56:45;;;;;;;8.33;7.57;;;27.70;99.90;;;;;;5119088;27;20470;-68
2021/06/10 10:59:18;;;;;;;8.60;7.90;;;27.90;99.90;;;;;;5098347;28;20496;-69
2021/06/10 11:05:04;;;;;;;8.43;7.63;;;28.10;99.90;;;;;;5098878;28;20428;-69
2021/06/10 11:07:53;;;;;;;8.20;7.60;;;28.30;99.90;;;;;;5107963;28;20519;-68
2021/06/10 11:10:39;;;;;;;8.20;7.70;;;28.00;99.90;;;;;;5110208;28;20551;-68
2021/06/10 11:13:25;;;;;;;11.90;7.80;;;28.40;99.90;;;;;;5107333;28;20494;-67
2021/06/10 11:15:57;;;;;;;8.40;7.70;;;28.40;99.90;;;;;;5110393;28;20455;-69
2021/06/10 11:18:39;;;;;;;7.90;7.10;;;28.10;99.90;;;;;;5110493;28;20423;-68
2021/06/10 11:21:05;;;;;;;7.23;6.63;;;28.10;99.90;;;;;;5108140;28;20453;-68
2021/06/10 11:23:30;;;;;;;8.20;7.50;;;27.90;99.90;;;;;;5110399;28;20809;-69
2021/06/10 11:25:58;;;;;;;6.83;6.23;;;28.10;99.90;;;;;;5112649;28;20270;-68
2021/06/10 11:28:27;;;;;;;7.40;6.33;;;27.70;99.40;;;;;;5109051;28;20229;-68
2021/06/10 11:31:11;;;;;;;5.70;5.30;;;28.00;99.10;;;;;;5109187;28;20963;-68
2021/06/10 11:33:37;;;;;;;7.50;6.80;;;27.80;98.00;;;;;;5107210;28;20442;-68
2021/06/10 11:36:09;;;;;;;6.97;6.30;;;27.50;98.60;;;;;;5110715;28;20854;-68
2021/06/10 11:38:50;;;;;;;7.67;6.97;;;27.80;99.30;;;;;;5100755;28;20438;-68
2021/06/10 11:41:22;;;;;;;7.00;6.40;;;28.00;98.20;;;;;;5111806;28;20956;-68
2021/06/10 11:43:57;;;;;;;6.90;6.30;;;27.70;99.10;;;;;;5112471;28;20591;-69
2021/06/10 11:46:40;;;;;;;7.63;6.83;;;28.10;98.80;;;;;;5110048;28;20444;-69
2021/06/10 11:49:11;;;;;;;6.87;6.37;;;28.20;98.40;;;;;;5106802;28;20412;-68
2021/06/10 11:51:38;;;;;;;7.40;6.70;;;28.40;98.20;;;;;;5128152;27;20824;-70
2021/06/10 11:54:07;;;;;;;7.10;6.60;;;28.20;97.70;;;;;;5124552;27;20964;-69
2021/06/10 11:56:33;;;;;;;6.70;6.10;;;28.00;97.80;;;;;;5128452;27;21142;-69
2021/06/10 11:59:18;;;;;;;7.87;6.67;;;28.30;97.80;;;;;;5116116;27;20908;-69
2021/06/10 12:01:59;;;;;;;6.53;6.03;;;28.30;97.60;;;;;;5112066;28;20480;-70
2021/06/10 12:04:33;;;;;;;7.57;6.97;;;28.60;97.60;;;;;;5120452;27;20431;-68
2021/06/10 12:07:13;;;;;;;6.90;6.20;;;28.50;97.10;;;;;;5120473;27;20816;-69
2021/06/10 12:09:52;;;;;;;6.13;5.53;;;28.10;97.10;;;;;;5122314;27;20419;-68
2021/06/10 12:12:34;;;;;;;6.73;5.77;;;28.00;96.80;;;;;;5118005;27;20439;-69
2021/06/10 12:14:59;;;;;;;5.40;4.93;;;28.50;96.80;;;;;;5125074;27;20478;-67
2021/06/10 12:17:25;;;;;;;5.93;5.43;;;28.60;95.40;;;;;;5127487;27;20489;-68
2021/06/10 12:20:16;;;;;;;5.87;5.37;;;28.70;95.30;;;;;;5119556;27;20223;-67
2021/06/10 12:22:44;;;;;;;6.87;6.17;;;28.60;94.80;;;;;;5110849;28;20211;-67
2021/06/10 12:25:20;;;;;;;6.73;6.20;;;28.30;96.20;;;;;;5119531;27;20666;-69
2021/06/10 12:27:46;;;;;;;5.00;4.57;;;28.40;95.50;;;;;;5126982;27;20801;-68
2021/06/10 12:30:34;;;;;;;6.73;6.23;;;28.50;95.90;;;;;;5130360;27;20442;-68
2021/06/10 12:33:20;;;;;;;6.03;5.63;;;29.00;95.90;;;;;;5110974;27;20765;-68
2021/06/10 12:35:56;;;;;;;7.47;6.40;;;29.00;95.20;;;;;;5116049;27;20648;-68
2021/06/10 12:38:35;;;;;;;6.43;5.87;;;29.00;95.80;;;;;;5115700;27;20419;-69
2021/06/10 12:41:16;;;;;;;7.53;6.83;;;29.30;95.80;;;;;;5116359;27;20451;-67
2021/06/10 12:43:43;;;;;;;7.00;6.40;;;29.40;95.30;;;;;;5095026;28;20480;-68
2021/06/10 12:46:10;;;;;;;7.00;6.50;;;28.50;95.20;;;;;;5127295;27;21003;-68
2021/06/10 12:48:36;;;;;;;6.50;6.00;;;27.70;96.10;;;;;;5130819;27;20928;-69
2021/06/10 12:51:22;;;;;;;6.23;5.80;;;27.40;96.50;;;;;;5111367;27;20525;-68
2021/06/10 12:54:02;;;;;;;6.60;6.10;;;27.10;96.60;;;;;;5109735;27;20912;-67
2021/06/10 12:56:46;;;;;;;6.77;6.17;;;27.70;95.90;;;;;;5111144;27;20551;-67
2021/06/10 12:59:34;;;;;;;7.57;6.97;;;28.20;95.80;;;;;;5110160;27;20435;-67
2021/06/10 13:02:10;;;;;;;6.83;6.33;;;28.60;96.00;;;;;;5108795;28;20467;-68
2021/06/10 13:04:49;;;;;;;6.87;6.27;;;28.70;95.80;;;;;;5111936;28;20785;-67
2021/06/10 13:07:31;;;;;;;7.83;7.13;;;28.90;95.70;;;;;;5115894;28;20436;-68